Watertown, CT

12:23 AM EST on December 28, 2014 (GMT -0500)
Tweed-New Haven | Change Station
CLOSE
Current Station
Airport
Location: New Haven,
Elevation: 13 ft
Nearby Weather Stations

Elev 13 ft 41.26 °N, 72.89 °W | Updated 30 minutes ago

Overcast
Overcast
47 °F
Feels Like 47 °F
N
4
Wind Variable Wind from SSW

Today
High -- | Low -- °F
--% Chance of Precip.
Yesterday
High -- | Low -- °F
Precip. -- in
7:18 AM 4:29 PM
Waxing Crescent, 44% visible
Pressure 30.07 in
Visibility 10.0 miles
Clouds Overcast 7500 ft
Dew Point 40 °F
Humidity 77%
Rainfall 0.00 in
Snow Depth Not available.
UV 0 out of 12
Pollen .10 out of 12
Air Quality Not available.
Flu Activity Not available.
METAR KHVN 280453Z AUTO 21003KT 10SM OVC075 08/04 A3007 RMK AO2 SLP182 T00830044 401171022

More Conditions Fewer Conditions

Pressure 30.07 in
Visibility 10.0 miles
Clouds Overcast 7500 ft
Dew Point 40 °F
Humidity 77%
Rainfall 0.00 in
Snow Depth Not available.
UV 0 out of 12
Pollen .10 out of 12
Air Quality Not available.
Flu Activity Not available.
METAR KHVN 280453Z AUTO 21003KT 10SM OVC075 08/04 A3007 RMK AO2 SLP182 T00830044 401171022

More Conditions Fewer Conditions

10-Day Weather Forecast

Almanac

Astronomy

Dec. 28, 2014 Rise Set
Actual Time
Civil Twilight
Nautical Twilight
Astronomical Twilight
Moon
Length of Visible Light
Length of Day
Tomorrow will be .
, % of the Moon is Illuminated

Today's Extremes

State Highs State Lows

Community

WunderPhotos

Upload Photos

1,781,205 photos uploaded!

WunderBlogs® & News

Nearby

Air Quality

  Air Quality AQ Index Pollutant
Not available.

Snow Depth

Station Depth Elevation

Earthquake Activity

City Distance Mag. Time & Date
Minimum magnitude displayed is 2.5.

Coastal Water Temperatures

Place Temperature

Nearby Weather Stations